createdAt,value
2022-11-26T00:02:20.445Z,5.71
2022-11-26T00:04:49.271Z,5.73
2022-11-26T00:07:23.475Z,5.75
2022-11-26T00:09:51.892Z,5.79
2022-11-26T00:12:23.972Z,5.83
2022-11-26T00:14:53.500Z,5.86
2022-11-26T00:17:23.542Z,5.84
2022-11-26T00:19:51.917Z,5.83
2022-11-26T00:22:30.166Z,5.83
2022-11-26T00:24:59.389Z,5.82
2022-11-26T00:27:33.266Z,5.78
2022-11-26T00:30:15.900Z,5.80
2022-11-26T00:32:44.105Z,5.78
2022-11-26T00:35:13.020Z,5.80
2022-11-26T00:37:46.651Z,5.81
2022-11-26T00:40:24.981Z,5.83
2022-11-26T00:43:01.612Z,5.87
2022-11-26T00:45:38.722Z,5.89
2022-11-26T00:48:11.192Z,5.89
2022-11-26T00:50:44.957Z,5.89
2022-11-26T00:53:22.521Z,5.93
2022-11-26T00:55:54.238Z,5.94
2022-11-26T00:58:33.745Z,5.98
2022-11-26T01:01:02.220Z,5.97
2022-11-26T01:03:30.965Z,5.99
2022-11-26T01:06:00.860Z,6.02
2022-11-26T01:08:35.224Z,6.03
2022-11-26T01:11:12.063Z,6.05
2022-11-26T01:13:40.497Z,6.02
2022-11-26T01:16:21.169Z,6.03
2022-11-26T01:18:52.445Z,6.04
2022-11-26T01:21:25.909Z,6.00
2022-11-26T01:23:55.674Z,6.01
2022-11-26T01:26:28.508Z,6.00
2022-11-26T01:28:57.056Z,5.99
2022-11-26T01:31:30.635Z,5.97
2022-11-26T01:34:00.258Z,5.96
2022-11-26T01:36:32.198Z,5.94
2022-11-26T01:39:16.024Z,5.93
2022-11-26T01:41:54.425Z,5.90
2022-11-26T01:44:26.469Z,5.89
2022-11-26T01:46:56.282Z,5.88
2022-11-26T01:49:28.074Z,5.84
2022-11-26T01:52:05.448Z,5.84
2022-11-26T01:54:38.366Z,5.83
2022-11-26T01:57:11.043Z,5.83
2022-11-26T01:59:42.548Z,5.83
2022-11-26T02:02:11.567Z,5.80
2022-11-26T02:04:44.144Z,5.78
2022-11-26T02:07:12.968Z,5.75
2022-11-26T02:09:43.642Z,5.75
2022-11-26T02:12:12.073Z,5.74
2022-11-26T02:14:44.408Z,5.72
2022-11-26T02:17:21.730Z,5.73
2022-11-26T02:20:28.050Z,5.69
2022-11-26T02:23:40.268Z,5.66
2022-11-26T02:26:52.513Z,5.63
2022-11-26T02:29:34.267Z,5.63
2022-11-26T02:32:11.858Z,5.68
2022-11-26T02:34:45.781Z,5.68
2022-11-26T02:37:21.657Z,5.66
2022-11-26T02:39:50.151Z,5.64
2022-11-26T02:42:26.620Z,5.64
2022-11-26T02:44:59.162Z,5.63
2022-11-26T02:47:31.059Z,5.61
2022-11-26T02:50:05.079Z,5.59
2022-11-26T02:52:34.708Z,5.57
2022-11-26T02:55:05.511Z,5.53
2022-11-26T02:57:35.963Z,5.47
2022-11-26T03:00:05.895Z,5.44
2022-11-26T03:02:41.322Z,5.41
2022-11-26T03:05:10.706Z,5.41
2022-11-26T03:07:39.609Z,5.36
2022-11-26T03:10:09.528Z,5.34
2022-11-26T03:12:37.797Z,5.27
2022-11-26T03:15:07.493Z,5.22
2022-11-26T03:17:37.135Z,5.18
2022-11-26T03:20:07.624Z,5.12
2022-11-26T03:22:35.954Z,5.09
2022-11-26T03:25:05.084Z,5.08
2022-11-26T03:27:33.734Z,5.05
2022-11-26T03:30:02.217Z,5.03
2022-11-26T03:32:31.085Z,5.04
2022-11-26T03:35:01.202Z,5.04
2022-11-26T03:37:29.492Z,5.03
2022-11-26T03:39:57.683Z,5.04
2022-11-26T03:42:26.051Z,5.05
2022-11-26T03:44:54.571Z,5.04
2022-11-26T03:47:22.859Z,5.04
2022-11-26T03:49:51.071Z,5.05
2022-11-26T03:52:20.810Z,5.03
2022-11-26T03:54:49.852Z,5.01
2022-11-26T03:57:18.066Z,5.01
2022-11-26T03:59:46.382Z,5.01
2022-11-26T04:02:14.769Z,4.98
2022-11-26T04:04:43.117Z,4.97
2022-11-26T04:07:11.418Z,4.97
2022-11-26T04:09:41.275Z,4.98
2022-11-26T04:12:09.728Z,4.97
2022-11-26T04:14:38.598Z,4.99
2022-11-26T04:17:07.144Z,5.01
2022-11-26T04:19:35.431Z,5.02
2022-11-26T04:22:03.740Z,5.00
2022-11-26T04:24:52.793Z,4.98
2022-11-26T04:27:21.662Z,4.98
2022-11-26T04:29:49.861Z,4.98
2022-11-26T04:32:18.779Z,4.97
2022-11-26T04:34:47.275Z,4.95
2022-11-26T04:37:17.654Z,4.94
2022-11-26T04:39:47.529Z,4.94
2022-11-26T04:42:18.296Z,4.93
2022-11-26T04:44:46.531Z,4.90
2022-11-26T04:47:14.760Z,4.88
2022-11-26T04:49:42.965Z,4.86
2022-11-26T04:52:11.370Z,4.80
2022-11-26T04:54:40.115Z,4.76
2022-11-26T04:57:09.902Z,4.76
2022-11-26T04:59:38.094Z,4.75
2022-11-26T05:02:06.531Z,4.78
2022-11-26T05:04:34.914Z,4.77
2022-11-26T05:07:03.097Z,4.74
2022-11-26T05:09:31.260Z,4.72
2022-11-26T05:11:59.449Z,4.71
2022-11-26T05:14:29.012Z,4.74
2022-11-26T05:16:57.319Z,4.74
2022-11-26T05:19:25.888Z,4.74
2022-11-26T05:21:54.104Z,4.76
2022-11-26T05:24:22.414Z,4.75
2022-11-26T05:26:56.467Z,4.78
2022-11-26T05:29:25.864Z,4.76
2022-11-26T05:31:55.535Z,4.76
2022-11-26T05:34:23.759Z,4.75
2022-11-26T05:36:52.084Z,4.76
2022-11-26T05:39:20.303Z,4.75
2022-11-26T05:41:48.633Z,4.77
2022-11-26T05:44:16.927Z,4.78
2022-11-26T05:46:45.482Z,4.80
2022-11-26T05:49:15.643Z,4.85
2022-11-26T05:51:43.875Z,4.88
2022-11-26T05:54:14.840Z,4.87
2022-11-26T05:56:44.203Z,4.88
2022-11-26T05:59:12.513Z,4.86
2022-11-26T06:01:42.113Z,4.84
2022-11-26T06:04:10.364Z,4.79
2022-11-26T06:06:39.974Z,4.74
2022-11-26T06:09:08.254Z,4.69
2022-11-26T06:11:36.550Z,4.64
2022-11-26T06:14:04.856Z,4.58
2022-11-26T06:16:33.052Z,4.56
2022-11-26T06:19:01.303Z,4.54
2022-11-26T06:21:29.614Z,4.50
2022-11-26T06:23:59.943Z,4.48
2022-11-26T06:26:28.528Z,4.45
2022-11-26T06:28:57.772Z,4.44
2022-11-26T06:31:26.427Z,4.41
2022-11-26T06:33:56.176Z,4.41
2022-11-26T06:36:26.004Z,4.37
2022-11-26T06:38:54.205Z,4.35
2022-11-26T06:41:23.812Z,4.39
2022-11-26T06:43:52.290Z,4.42
2022-11-26T06:46:21.176Z,4.42
2022-11-26T06:48:49.390Z,4.46
2022-11-26T06:51:20.522Z,4.49
2022-11-26T06:53:48.864Z,4.51
2022-11-26T06:56:19.756Z,4.54
2022-11-26T06:58:52.585Z,4.60
2022-11-26T07:01:23.778Z,4.65
2022-11-26T07:03:52.776Z,4.70
2022-11-26T07:06:23.592Z,4.76
2022-11-26T07:08:54.294Z,4.81
2022-11-26T07:11:24.186Z,4.87
2022-11-26T07:13:54.470Z,4.91
2022-11-26T07:16:23.887Z,4.95
2022-11-26T07:18:59.404Z,4.98
2022-11-26T07:21:31.795Z,5.04
2022-11-26T07:24:00.392Z,5.08
2022-11-26T07:26:28.685Z,5.12
2022-11-26T07:28:58.470Z,5.15
2022-11-26T07:31:27.803Z,5.21
2022-11-26T07:33:57.750Z,5.27
2022-11-26T07:36:30.512Z,5.33
2022-11-26T07:39:00.565Z,5.37
2022-11-26T07:41:31.550Z,5.41
2022-11-26T07:44:01.778Z,5.47
2022-11-26T07:46:30.165Z,5.51
2022-11-26T07:48:58.959Z,5.55
2022-11-26T07:51:29.355Z,5.59
2022-11-26T07:53:59.554Z,5.62
2022-11-26T07:56:28.382Z,5.69
2022-11-26T07:58:56.821Z,5.72
2022-11-26T08:01:29.710Z,5.72
2022-11-26T08:03:59.754Z,5.74
2022-11-26T08:06:30.972Z,5.77
2022-11-26T08:09:02.347Z,5.82
2022-11-26T08:11:33.276Z,5.89
2022-11-26T08:14:04.455Z,5.99
2022-11-26T08:16:35.026Z,6.10
2022-11-26T08:19:06.473Z,6.23
2022-11-26T08:21:36.091Z,6.35
2022-11-26T08:24:05.009Z,6.43
2022-11-26T08:26:37.394Z,6.45
2022-11-26T08:29:08.303Z,6.48
2022-11-26T08:31:45.311Z,6.53
2022-11-26T08:34:16.711Z,6.50
2022-11-26T08:36:46.763Z,6.50
2022-11-26T08:39:18.495Z,6.55
2022-11-26T08:41:52.060Z,6.54
2022-11-26T08:44:21.597Z,6.54
2022-11-26T08:46:52.226Z,6.51
2022-11-26T08:49:20.522Z,6.52
2022-11-26T08:51:49.461Z,6.59
2022-11-26T08:54:18.160Z,6.64
2022-11-26T08:56:46.462Z,6.70
2022-11-26T08:59:15.163Z,6.75
2022-11-26T09:01:47.181Z,6.81
2022-11-26T09:04:20.137Z,6.84
2022-11-26T09:06:48.905Z,6.88
2022-11-26T09:09:18.082Z,6.89
2022-11-26T09:11:51.944Z,6.92
2022-11-26T09:14:25.514Z,6.93
2022-11-26T09:16:54.073Z,6.97
2022-11-26T09:19:25.300Z,7.03
2022-11-26T09:21:53.770Z,7.06
2022-11-26T09:24:25.642Z,7.11
2022-11-26T09:26:54.676Z,7.16
2022-11-26T09:29:24.903Z,7.22
2022-11-26T09:32:21.989Z,7.29
2022-11-26T09:34:45.943Z,7.35
2022-11-26T09:37:15.453Z,7.41
2022-11-26T09:39:44.031Z,7.46
2022-11-26T09:42:26.680Z,7.50
2022-11-26T09:45:09.600Z,7.51
2022-11-26T09:47:42.789Z,7.54
2022-11-26T09:50:28.448Z,7.56
2022-11-26T09:53:01.633Z,7.57
2022-11-26T09:55:35.672Z,7.62
2022-11-26T09:58:15.422Z,7.69
2022-11-26T10:00:48.061Z,7.73
2022-11-26T10:03:19.939Z,7.79
2022-11-26T10:05:59.447Z,7.82
2022-11-26T10:09:08.699Z,7.88
2022-11-26T10:11:45.764Z,7.94
2022-11-26T10:14:32.768Z,8.01
2022-11-26T10:17:22.248Z,8.06
2022-11-26T10:20:10.022Z,8.12
2022-11-26T10:22:51.551Z,8.19
2022-11-26T10:25:28.516Z,8.26
2022-11-26T10:27:59.049Z,8.31
2022-11-26T10:30:33.486Z,8.39
2022-11-26T10:33:04.231Z,8.44
2022-11-26T10:35:33.932Z,8.44
2022-11-26T10:38:06.391Z,8.49
2022-11-26T10:40:34.670Z,8.54
2022-11-26T10:43:13.656Z,8.62
2022-11-26T10:45:49.176Z,8.68
2022-11-26T10:48:26.742Z,8.72
2022-11-26T10:51:04.999Z,8.73
2022-11-26T10:53:52.202Z,8.73
2022-11-26T10:56:24.106Z,8.75
2022-11-26T10:58:54.409Z,8.81
2022-11-26T11:01:22.774Z,8.87
2022-11-26T11:04:09.424Z,8.90
2022-11-26T11:06:42.908Z,8.96
2022-11-26T11:09:36.115Z,9.01
2022-11-26T11:12:21.999Z,9.10
2022-11-26T11:14:51.805Z,9.17
2022-11-26T11:17:34.643Z,9.20
2022-11-26T11:20:24.340Z,9.24
2022-11-26T11:23:03.927Z,9.30
2022-11-26T11:25:35.982Z,9.31
2022-11-26T11:28:14.393Z,9.35
2022-11-26T11:30:43.510Z,9.43
2022-11-26T11:33:22.176Z,9.50
2022-11-26T11:36:07.638Z,9.60
2022-11-26T11:38:48.859Z,9.67
2022-11-26T11:41:29.047Z,9.69
2022-11-26T11:44:15.865Z,9.73
2022-11-26T11:47:25.312Z,9.75
2022-11-26T11:50:18.316Z,9.76
2022-11-26T11:52:59.858Z,9.81
2022-11-26T11:55:45.429Z,9.82
2022-11-26T11:58:50.082Z,9.77
2022-11-26T12:01:36.643Z,9.79
2022-11-26T12:04:28.565Z,9.82
2022-11-26T12:07:24.703Z,9.85
2022-11-26T12:10:02.599Z,9.91
2022-11-26T12:12:38.011Z,9.92
2022-11-26T12:15:14.109Z,9.96
2022-11-26T12:17:50.102Z,9.98
2022-11-26T12:20:28.570Z,10.00
2022-11-26T12:23:14.803Z,9.98
2022-11-26T12:25:48.560Z,10.00
2022-11-26T12:28:19.551Z,10.02
2022-11-26T12:30:56.844Z,10.04
2022-11-26T12:33:32.197Z,10.07
2022-11-26T12:36:06.547Z,10.10
2022-11-26T12:38:42.004Z,10.14
2022-11-26T12:41:14.969Z,10.17
2022-11-26T12:43:54.025Z,10.26
2022-11-26T12:46:29.945Z,10.28
2022-11-26T12:49:07.712Z,10.31
2022-11-26T12:51:43.011Z,10.33
2022-11-26T12:54:20.031Z,10.38
2022-11-26T12:56:58.433Z,10.41
2022-11-26T12:59:33.387Z,10.41
2022-11-26T13:02:21.894Z,10.39
2022-11-26T13:04:52.036Z,10.39
2022-11-26T13:07:39.796Z,10.39
2022-11-26T13:10:23.687Z,10.40
2022-11-26T13:13:02.312Z,10.39
2022-11-26T13:15:40.980Z,10.36
2022-11-26T13:18:20.212Z,10.35
2022-11-26T13:21:10.573Z,10.33
2022-11-26T13:24:05.979Z,10.31
2022-11-26T13:26:58.800Z,10.29
2022-11-26T13:30:08.664Z,10.25
2022-11-26T13:33:25.667Z,10.19
2022-11-26T13:36:22.923Z,10.18
2022-11-26T13:39:05.764Z,10.16
2022-11-26T13:42:21.455Z,10.13
2022-11-26T13:45:34.306Z,10.10
2022-11-26T13:48:07.617Z,10.09
2022-11-26T13:50:43.372Z,10.06
2022-11-26T13:53:23.723Z,10.05
2022-11-26T13:55:59.387Z,10.03
2022-11-26T13:58:32.096Z,10.02
2022-11-26T14:01:29.273Z,9.99
2022-11-26T14:03:58.486Z,9.99
2022-11-26T14:06:29.312Z,9.98
2022-11-26T14:08:58.250Z,9.97
2022-11-26T14:12:00.982Z,9.97
2022-11-26T14:14:34.404Z,9.96
2022-11-26T14:17:34.911Z,9.94
2022-11-26T14:20:11.171Z,9.92
2022-11-26T14:22:41.116Z,9.91
2022-11-26T14:25:14.451Z,9.90
2022-11-26T14:27:53.354Z,9.89
2022-11-26T14:30:28.268Z,9.85
2022-11-26T14:33:12.125Z,9.82
2022-11-26T14:35:42.971Z,9.79
2022-11-26T14:38:27.304Z,9.76
2022-11-26T14:41:00.778Z,9.74
2022-11-26T14:43:45.471Z,9.72
2022-11-26T14:46:20.586Z,9.70
2022-11-26T14:48:51.122Z,9.69
2022-11-26T14:51:27.027Z,9.68
2022-11-26T14:53:57.235Z,9.66
2022-11-26T14:56:26.797Z,9.64
2022-11-26T14:58:57.859Z,9.62
2022-11-26T15:01:29.402Z,9.59
2022-11-26T15:04:01.724Z,9.55
2022-11-26T15:06:34.961Z,9.51
2022-11-26T15:09:14.907Z,9.45
2022-11-26T15:11:48.290Z,9.39
2022-11-26T15:14:29.517Z,9.35
2022-11-26T15:17:00.763Z,9.29
2022-11-26T15:19:34.227Z,9.26
2022-11-26T15:22:07.040Z,9.24
2022-11-26T15:24:37.720Z,9.20
2022-11-26T15:27:06.992Z,9.18
2022-11-26T15:29:41.207Z,9.14
2022-11-26T15:32:31.382Z,9.10
2022-11-26T15:35:03.687Z,9.13
2022-11-26T15:37:32.021Z,9.11
2022-11-26T15:40:22.834Z,9.09
2022-11-26T15:42:55.165Z,9.07
2022-11-26T15:45:32.371Z,9.07
2022-11-26T15:48:01.312Z,9.07
2022-11-26T15:50:34.327Z,9.06
2022-11-26T15:53:06.257Z,9.05
2022-11-26T15:55:38.781Z,9.05
2022-11-26T15:58:12.239Z,9.03
2022-11-26T16:00:42.567Z,9.00
2022-11-26T16:03:37.859Z,8.97
2022-11-26T16:06:11.003Z,8.95
2022-11-26T16:08:43.118Z,8.94
2022-11-26T16:11:23.732Z,8.92
2022-11-26T16:13:52.090Z,8.92
2022-11-26T16:16:23.002Z,8.92
2022-11-26T16:18:58.963Z,8.90
2022-11-26T16:21:29.798Z,8.88
2022-11-26T16:24:01.761Z,8.88
2022-11-26T16:26:35.040Z,8.88
2022-11-26T16:29:03.315Z,8.86
2022-11-26T16:31:32.348Z,8.84
2022-11-26T16:34:03.227Z,8.82
2022-11-26T16:36:35.193Z,8.81
2022-11-26T16:39:03.434Z,8.81
2022-11-26T16:41:33.060Z,8.78
2022-11-26T16:44:01.308Z,8.75
2022-11-26T16:46:30.692Z,8.73
2022-11-26T16:48:59.342Z,8.70
2022-11-26T16:51:27.637Z,8.66
2022-11-26T16:53:55.891Z,8.62
2022-11-26T16:56:29.773Z,8.61
2022-11-26T16:59:02.571Z,8.59
2022-11-26T17:01:33.823Z,8.55
2022-11-26T17:04:01.995Z,8.51
2022-11-26T17:06:34.768Z,8.49
2022-11-26T17:09:03.863Z,8.47
2022-11-26T17:11:32.987Z,8.43
2022-11-26T17:14:03.400Z,8.41
2022-11-26T17:16:31.724Z,8.39
2022-11-26T17:19:00.021Z,8.34
2022-11-26T17:21:28.549Z,8.32
2022-11-26T17:23:57.786Z,8.30
2022-11-26T17:26:26.794Z,8.29
2022-11-26T17:28:55.091Z,8.29
2022-11-26T17:31:40.176Z,8.28
2022-11-26T17:34:09.220Z,8.27
2022-11-26T17:36:37.963Z,8.31
2022-11-26T17:39:06.474Z,8.35
2022-11-26T17:41:34.691Z,8.39
2022-11-26T17:44:07.096Z,8.43
2022-11-26T17:47:00.996Z,8.44
2022-11-26T17:49:25.687Z,8.41
2022-11-26T17:51:54.283Z,8.39
2022-11-26T17:54:22.645Z,8.40
2022-11-26T17:56:50.876Z,8.39
2022-11-26T17:59:21.138Z,8.36
2022-11-26T18:01:52.094Z,8.35
2022-11-26T18:04:20.607Z,8.34
2022-11-26T18:06:59.505Z,8.30
2022-11-26T18:09:27.850Z,8.27
2022-11-26T18:11:58.009Z,8.23
2022-11-26T18:14:26.637Z,8.21
2022-11-26T18:16:55.401Z,8.16
2022-11-26T18:19:24.758Z,8.12
2022-11-26T18:21:54.404Z,8.11
2022-11-26T18:24:22.682Z,8.07
2022-11-26T18:26:52.550Z,8.05
2022-11-26T18:29:20.877Z,8.05
2022-11-26T18:31:49.373Z,8.06
2022-11-26T18:34:17.742Z,8.05
2022-11-26T18:36:50.677Z,8.08
2022-11-26T18:39:23.354Z,8.09
2022-11-26T18:41:54.498Z,8.09
2022-11-26T18:44:25.898Z,8.06
2022-11-26T18:46:54.085Z,8.04
2022-11-26T18:49:22.673Z,8.06
2022-11-26T18:51:51.148Z,8.05
2022-11-26T18:54:19.360Z,8.07
2022-11-26T18:56:48.952Z,8.07
2022-11-26T18:59:17.572Z,8.12
2022-11-26T19:01:46.811Z,8.13
2022-11-26T19:04:15.208Z,8.14
2022-11-26T19:06:43.468Z,8.17
2022-11-26T19:09:20.243Z,8.17
2022-11-26T19:11:50.268Z,8.18
2022-11-26T19:14:18.816Z,8.18
2022-11-26T19:16:51.213Z,8.18
2022-11-26T19:19:19.968Z,8.18
2022-11-26T19:21:49.703Z,8.18
2022-11-26T19:24:18.137Z,8.19
2022-11-26T19:26:46.343Z,8.18
2022-11-26T19:29:15.990Z,8.18
2022-11-26T19:31:44.823Z,8.14
2022-11-26T19:34:16.404Z,8.13
2022-11-26T19:36:48.379Z,8.10
2022-11-26T19:39:18.246Z,8.07
2022-11-26T19:41:46.579Z,8.02
2022-11-26T19:44:18.697Z,7.98
2022-11-26T19:46:48.264Z,7.92
2022-11-26T19:49:16.644Z,7.87
2022-11-26T19:51:44.960Z,7.83
2022-11-26T19:54:13.236Z,7.80
2022-11-26T19:56:43.050Z,7.77
2022-11-26T19:59:11.423Z,7.75
2022-11-26T20:01:42.147Z,7.72
2022-11-26T20:04:15.866Z,7.71
2022-11-26T20:06:47.094Z,7.73
2022-11-26T20:09:16.258Z,7.72
2022-11-26T20:11:44.737Z,7.75
2022-11-26T20:14:15.380Z,7.76
2022-11-26T20:16:47.287Z,7.76
2022-11-26T20:19:15.600Z,7.81
2022-11-26T20:21:44.005Z,7.85
2022-11-26T20:24:16.264Z,7.91
2022-11-26T20:26:48.669Z,7.95
2022-11-26T20:29:20.273Z,8.02
2022-11-26T20:31:52.622Z,8.07
2022-11-26T20:34:24.105Z,8.12
2022-11-26T20:36:52.484Z,8.17
2022-11-26T20:39:23.371Z,8.21
2022-11-26T20:41:52.049Z,8.25
2022-11-26T20:44:20.328Z,8.29
2022-11-26T20:46:49.978Z,8.34
2022-11-26T20:49:18.240Z,8.38
2022-11-26T20:51:46.663Z,8.41
2022-11-26T20:54:15.030Z,8.43
2022-11-26T20:56:43.348Z,8.45
2022-11-26T20:59:11.647Z,8.48
2022-11-26T21:01:40.656Z,8.48
2022-11-26T21:04:10.407Z,8.49
2022-11-26T21:06:38.820Z,8.52
2022-11-26T21:09:07.548Z,8.55
2022-11-26T21:11:37.267Z,8.56
2022-11-26T21:14:11.917Z,8.57
2022-11-26T21:16:43.016Z,8.55
2022-11-26T21:19:14.026Z,8.58
2022-11-26T21:21:42.597Z,8.56
2022-11-26T21:24:10.980Z,8.56
2022-11-26T21:26:39.753Z,8.56
2022-11-26T21:29:08.095Z,8.56
2022-11-26T21:31:36.608Z,8.55
2022-11-26T21:34:08.230Z,8.55
2022-11-26T21:36:38.796Z,8.56
2022-11-26T21:39:07.585Z,8.55
2022-11-26T21:41:37.400Z,8.55
2022-11-26T21:44:06.057Z,8.55
2022-11-26T21:46:38.637Z,8.53
2022-11-26T21:49:08.395Z,8.53
2022-11-26T21:51:38.185Z,8.52
2022-11-26T21:54:06.796Z,8.50
2022-11-26T21:56:37.797Z,8.48
2022-11-26T21:59:06.148Z,8.45
2022-11-26T22:01:38.124Z,8.41
2022-11-26T22:04:09.257Z,8.39
2022-11-26T22:06:39.505Z,8.35
2022-11-26T22:09:09.041Z,8.33
2022-11-26T22:11:41.490Z,8.29
2022-11-26T22:14:11.725Z,8.25
2022-11-26T22:16:40.108Z,8.24
2022-11-26T22:19:08.410Z,8.22
2022-11-26T22:21:40.380Z,8.21
2022-11-26T22:24:13.206Z,8.20
2022-11-26T22:26:42.821Z,8.17
2022-11-26T22:29:12.636Z,8.15
2022-11-26T22:31:41.173Z,8.14
2022-11-26T22:34:12.423Z,8.12
2022-11-26T22:36:44.035Z,8.11
2022-11-26T22:39:14.829Z,8.10
2022-11-26T22:41:45.241Z,8.09
2022-11-26T22:44:14.799Z,8.09
2022-11-26T22:46:43.370Z,8.07
2022-11-26T22:49:14.470Z,8.03
2022-11-26T22:51:44.616Z,8.01
2022-11-26T22:54:18.125Z,7.96
2022-11-26T22:56:46.920Z,7.90
2022-11-26T22:59:15.788Z,7.85
2022-11-26T23:01:44.256Z,7.77
2022-11-26T23:04:13.602Z,7.69
2022-11-26T23:06:44.114Z,7.59
2022-11-26T23:09:14.520Z,7.51
2022-11-26T23:11:44.303Z,7.44
2022-11-26T23:14:13.080Z,7.42
2022-11-26T23:16:43.443Z,7.36
2022-11-26T23:19:15.261Z,7.30
2022-11-26T23:21:46.724Z,7.25
2022-11-26T23:24:15.926Z,7.24
2022-11-26T23:26:44.732Z,7.21
2022-11-26T23:29:13.790Z,7.15
2022-11-26T23:31:46.441Z,7.11
2022-11-26T23:34:16.200Z,7.06
2022-11-26T23:36:47.412Z,7.02
2022-11-26T23:39:17.264Z,6.98
2022-11-26T23:41:45.517Z,6.93
2022-11-26T23:44:14.357Z,6.93
2022-11-26T23:46:46.637Z,6.93
2022-11-26T23:49:15.035Z,6.94
2022-11-26T23:51:43.447Z,6.91
2022-11-26T23:54:13.358Z,6.89
2022-11-26T23:56:44.570Z,6.87
2022-11-26T23:59:14.350Z,6.86
